Time;durP1;ratioP1;P1;durP2;ratioP2;P2;SDS_P1;SDS_P2;PMS_P1;PMS_P2;Temp;Humidity;BMP_temperature;BMP_pressure;BME280_temperature;BME280_humidity;BME280_pressure;Samples;Min_cycle;Max_cycle;Signal;HPM_P1;HPM_P2
2023/03/30 00:01:50;;;;;;;;;;;;;;;11.55;100.00;100577.72;5037795;28;19921;-81
2023/03/30 00:04:17;;;;;;;;;;;;;;;11.63;100.00;100547.50;5039850;28;19978;-81
2023/03/30 00:06:42;;;;;;;;;;;;;;;11.41;100.00;100546.63;5056505;28;19927;-81
2023/03/30 00:09:08;;;;;;;;;;;;;;;11.71;100.00;100547.66;5055197;28;20254;-83
2023/03/30 00:11:34;;;;;;;;;;;;;;;11.65;100.00;100558.97;5039169;28;20232;-80
2023/03/30 00:13:59;;;;;;;;;;;;;;;11.73;100.00;100556.44;5040127;28;19920;-82
2023/03/30 00:16:24;;;;;;;;;;;;;;;11.77;100.00;100554.34;5037248;28;19931;-82
2023/03/30 00:18:50;;;;;;;;;;;;;;;11.97;100.00;100550.75;5034595;28;19920;-80
2023/03/30 00:21:19;;;;;;;;;;;;;;;12.05;100.00;100546.56;5033582;28;20126;-80
2023/03/30 00:23:47;;;;;;;;;;;;;;;11.86;100.00;100548.16;5017850;28;19940;-82
2023/03/30 00:26:13;;;;;;;;;;;;;;;12.02;100.00;100536.06;5031175;28;21920;-80
2023/03/30 00:28:38;;;;;;;;;;;;;;;11.87;100.00;100536.41;5036237;28;19920;-82
2023/03/30 00:31:03;;;;;;;;;;;;;;;11.90;100.00;100528.06;5032717;28;19987;-81
2023/03/30 00:33:29;;;;;;;;;;;;;;;11.83;100.00;100522.38;5018325;28;19993;-81
2023/03/30 00:35:55;;;;;;;;;;;;;;;11.83;100.00;100518.81;5037339;28;19920;-80
2023/03/30 00:38:20;;;;;;;;;;;;;;;11.79;100.00;100531.69;5020283;28;19927;-80
2023/03/30 00:40:52;;;;;;;;;;;;;;;11.80;100.00;100529.84;5024789;28;19973;-80
2023/03/30 00:43:17;;;;;;;;;;;;;;;11.84;100.00;100525.91;5013881;28;19925;-81
2023/03/30 00:45:42;;;;;;;;;;;;;;;11.95;100.00;100517.75;5022711;28;19920;-81
2023/03/30 00:48:07;;;;;;;;;;;;;;;11.80;100.00;100511.03;5038267;28;19927;-81
2023/03/30 00:50:37;;;;;;;;;;;;;;;11.82;100.00;100506.38;5035832;28;19925;-81
2023/03/30 00:53:05;;;;;;;;;;;;;;;12.09;100.00;100503.09;5018483;28;20323;-82
2023/03/30 00:55:31;;;;;;;;;;;;;;;11.98;100.00;100509.41;5038919;28;19939;-80
2023/03/30 00:57:56;;;;;;;;;;;;;;;11.92;100.00;100485.72;5020344;28;20394;-80
2023/03/30 01:00:22;;;;;;;;;;;;;;;11.88;100.00;100468.16;5025142;28;19920;-80
2023/03/30 01:02:54;;;;;;;;;;;;;;;11.88;100.00;100480.78;5036937;28;19994;-80
2023/03/30 01:05:20;;;;;;;;;;;;;;;11.84;100.00;100475.66;5018218;28;19952;-80
2023/03/30 01:07:48;;;;;;;;;;;;;;;11.65;100.00;100463.00;5020351;28;20043;-80
2023/03/30 01:10:13;;;;;;;;;;;;;;;11.78;100.00;100470.00;5018978;28;20449;-80
2023/03/30 01:12:39;;;;;;;;;;;;;;;11.51;100.00;100460.69;5034097;28;20410;-80
2023/03/30 01:15:06;;;;;;;;;;;;;;;11.61;100.00;100466.94;5038118;28;19923;-80
2023/03/30 01:17:35;;;;;;;;;;;;;;;11.70;100.00;100466.13;5020687;28;19925;-80
2023/03/30 01:20:33;;;;;;;;;;;;;;;11.77;100.00;100471.81;5010504;28;20286;-79
2023/03/30 01:23:02;;;;;;;;;;;;;;;11.64;100.00;100465.84;4992161;28;19946;-80
2023/03/30 01:25:32;;;;;;;;;;;;;;;11.63;100.00;100464.97;5020187;28;19920;-81
2023/03/30 01:28:13;;;;;;;;;;;;;;;11.91;100.00;100470.59;5016429;28;19924;-80
2023/03/30 01:30:54;;;;;;;;;;;;;;;11.76;100.00;100458.50;5030941;28;19920;-80
2023/03/30 01:33:42;;;;;;;;;;;;;;;11.86;100.00;100456.69;5020382;28;20294;-79
2023/03/30 01:36:27;;;;;;;;;;;;;;;11.90;100.00;100466.19;5007134;28;20011;-80
2023/03/30 01:38:58;;;;;;;;;;;;;;;12.05;100.00;100466.69;5033387;28;19920;-80
2023/03/30 01:41:34;;;;;;;;;;;;;;;12.22;100.00;100462.47;5037771;28;19921;-80
2023/03/30 01:44:01;;;;;;;;;;;;;;;12.28;100.00;100467.31;5019962;28;19967;-80
2023/03/30 01:46:29;;;;;;;;;;;;;;;12.29;100.00;100458.25;5030252;28;20385;-81
2023/03/30 01:49:14;;;;;;;;;;;;;;;12.50;100.00;100440.22;5038052;28;19920;-80
2023/03/30 01:51:41;;;;;;;;;;;;;;;12.37;100.00;100441.38;5051456;28;19927;-79
2023/03/30 01:54:08;;;;;;;;;;;;;;;12.26;100.00;100446.88;5032232;28;20015;-80
2023/03/30 01:56:51;;;;;;;;;;;;;;;12.32;100.00;100442.78;5028600;28;19924;-79
2023/03/30 01:59:24;;;;;;;;;;;;;;;12.17;100.00;100434.28;5035470;28;19971;-79
2023/03/30 02:01:49;;;;;;;;;;;;;;;12.18;100.00;100430.59;5017341;28;19991;-80
2023/03/30 02:04:15;;;;;;;;;;;;;;;12.40;100.00;100416.00;5037249;28;19927;-78
2023/03/30 02:06:42;;;;;;;;;;;;;;;11.93;100.00;100430.06;5022388;28;20286;-79
2023/03/30 02:09:09;;;;;;;;;;;;;;;11.84;100.00;100424.56;5032546;28;20295;-80
2023/03/30 02:11:34;;;;;;;;;;;;;;;11.89;100.00;100442.97;5021392;28;19920;-80
2023/03/30 02:13:59;;;;;;;;;;;;;;;11.84;100.00;100451.47;5036985;28;19931;-80
2023/03/30 02:16:29;;;;;;;;;;;;;;;12.01;100.00;100457.19;5040154;28;19916;-79
2023/03/30 02:18:54;;;;;;;;;;;;;;;11.86;100.00;100448.63;5017900;28;20192;-79
2023/03/30 02:21:20;;;;;;;;;;;;;;;11.77;100.00;100441.41;5034649;28;19920;-80
2023/03/30 02:23:45;;;;;;;;;;;;;;;11.72;100.00;100441.78;5033981;28;20393;-79
2023/03/30 02:26:11;;;;;;;;;;;;;;;11.78;100.00;100449.31;5018845;28;20015;-79
2023/03/30 02:28:36;;;;;;;;;;;;;;;11.86;100.00;100451.31;5022809;28;19924;-79
2023/03/30 02:31:02;;;;;;;;;;;;;;;12.03;100.00;100449.00;5056463;23;19959;-78
2023/03/30 02:33:43;;;;;;;;;;;;;;;12.17;100.00;100436.97;5059796;28;19936;-80
2023/03/30 02:36:14;;;;;;;;;;;;;;;12.37;100.00;100437.81;5072556;28;20035;-79
2023/03/30 02:38:49;;;;;;;;;;;;;;;12.45;100.00;100436.13;5057665;28;20662;-80
2023/03/30 02:41:30;;;;;;;;;;;;;;;12.47;100.00;100437.81;5075865;28;20011;-78
2023/03/30 02:44:04;;;;;;;;;;;;;;;12.52;100.00;100427.47;5073857;28;19919;-79
2023/03/30 02:46:30;;;;;;;;;;;;;;;12.50;100.00;100442.91;5068286;28;19928;-79
2023/03/30 02:48:57;;;;;;;;;;;;;;;12.50;100.00;100437.53;5074571;28;19924;-79
2023/03/30 02:51:37;;;;;;;;;;;;;;;12.54;100.00;100436.25;5040515;28;19986;-78
2023/03/30 02:54:30;;;;;;;;;;;;;;;12.64;100.00;100439.81;5073489;28;20014;-77
2023/03/30 02:57:06;;;;;;;;;;;;;;;12.72;100.00;100437.22;5033565;28;19924;-78
2023/03/30 02:59:44;;;;;;;;;;;;;;;12.80;100.00;100441.06;5044436;28;20183;-78
2023/03/30 03:02:14;;;;;;;;;;;;;;;12.87;100.00;100444.88;5058649;28;20609;-78
2023/03/30 03:04:42;;;;;;;;;;;;;;;12.83;100.00;100443.47;5083391;28;19973;-79
2023/03/30 03:07:08;;;;;;;;;;;;;;;12.78;100.00;100443.03;5060446;28;20010;-79
2023/03/30 03:09:33;;;;;;;;;;;;;;;12.88;100.00;100447.41;5059460;28;19930;-79
2023/03/30 03:11:58;;;;;;;;;;;;;;;12.94;100.00;100434.38;5075369;28;19927;-80
2023/03/30 03:14:25;;;;;;;;;;;;;;;12.88;100.00;100436.66;5044374;28;19926;-78
2023/03/30 03:16:50;;;;;;;;;;;;;;;12.88;100.00;100435.81;5040410;28;19920;-79
2023/03/30 03:19:15;;;;;;;;;;;;;;;12.91;100.00;100438.22;5051332;28;20311;-81
2023/03/30 03:21:41;;;;;;;;;;;;;;;12.94;100.00;100434.38;5054380;28;20114;-79
2023/03/30 03:24:06;;;;;;;;;;;;;;;12.96;100.00;100424.31;5067759;28;19928;-78
2023/03/30 03:26:32;;;;;;;;;;;;;;;12.95;100.00;100436.06;5058582;28;20627;-79
2023/03/30 03:28:58;;;;;;;;;;;;;;;12.94;100.00;100437.06;5038055;28;20807;-79
2023/03/30 03:31:23;;;;;;;;;;;;;;;12.99;100.00;100438.31;5054570;28;19939;-79
2023/03/30 03:33:49;;;;;;;;;;;;;;;12.90;100.00;100437.34;5060778;28;19931;-79
2023/03/30 03:36:15;;;;;;;;;;;;;;;12.93;100.00;100446.16;5061090;28;20770;-79
2023/03/30 03:38:40;;;;;;;;;;;;;;;13.01;100.00;100438.19;5043462;28;19926;-80
2023/03/30 03:41:06;;;;;;;;;;;;;;;12.79;100.00;100426.75;5076125;28;19961;-79
2023/03/30 03:43:31;;;;;;;;;;;;;;;12.77;100.00;100422.47;5079866;28;19977;-79
2023/03/30 03:45:57;;;;;;;;;;;;;;;12.63;100.00;100413.00;5047305;28;20039;-80
2023/03/30 03:48:23;;;;;;;;;;;;;;;12.64;100.00;100407.50;5071148;28;19924;-80
2023/03/30 03:50:49;;;;;;;;;;;;;;;12.47;100.00;100402.81;5056512;28;20408;-79
2023/03/30 03:53:14;;;;;;;;;;;;;;;12.52;100.00;100406.78;5064480;28;20436;-78
2023/03/30 03:55:40;;;;;;;;;;;;;;;12.51;100.00;100406.91;5070074;28;19955;-80
2023/03/30 03:58:06;;;;;;;;;;;;;;;12.62;100.00;100403.22;5048190;28;19977;-78
2023/03/30 04:00:31;;;;;;;;;;;;;;;12.72;100.00;100396.81;5037940;28;20000;-79
2023/03/30 04:02:56;;;;;;;;;;;;;;;12.79;100.00;100402.50;5034564;28;20529;-79
2023/03/30 04:05:22;;;;;;;;;;;;;;;12.75;100.00;100398.41;5038357;28;20065;-79
2023/03/30 04:07:47;;;;;;;;;;;;;;;12.62;100.00;100401.41;5052303;28;19961;-80
2023/03/30 04:10:13;;;;;;;;;;;;;;;12.56;100.00;100392.06;5046413;28;19926;-80
2023/03/30 04:12:38;;;;;;;;;;;;;;;12.55;100.00;100379.59;5059113;28;19994;-80
2023/03/30 04:15:04;;;;;;;;;;;;;;;12.55;100.00;100376.03;5059329;28;19966;-79
2023/03/30 04:17:32;;;;;;;;;;;;;;;12.51;100.00;100386.25;5056718;28;20405;-79
2023/03/30 04:19:58;;;;;;;;;;;;;;;12.39;100.00;100388.25;5079811;28;19959;-79
2023/03/30 04:22:24;;;;;;;;;;;;;;;12.26;100.00;100390.34;5080353;28;20371;-79
2023/03/30 04:24:50;;;;;;;;;;;;;;;12.21;100.00;100388.09;5044741;28;19920;-79
2023/03/30 04:27:15;;;;;;;;;;;;;;;12.24;100.00;100393.19;5077833;28;19931;-78
2023/03/30 04:29:43;;;;;;;;;;;;;;;12.55;100.00;100398.44;5063617;28;19935;-77
2023/03/30 04:32:09;;;;;;;;;;;;;;;12.61;100.00;100399.69;5066391;28;20023;-77
2023/03/30 04:34:34;;;;;;;;;;;;;;;12.37;100.00;100387.53;5057552;28;20368;-79
2023/03/30 04:37:00;;;;;;;;;;;;;;;12.27;100.00;100387.53;5061229;28;19947;-78
2023/03/30 04:39:28;;;;;;;;;;;;;;;12.14;100.00;100384.25;5061533;28;19990;-79
2023/03/30 04:41:54;;;;;;;;;;;;;;;11.97;100.00;100391.16;5049845;28;19998;-79
2023/03/30 04:44:19;;;;;;;;;;;;;;;11.95;100.00;100391.31;5044022;28;19931;-77
2023/03/30 04:46:45;;;;;;;;;;;;;;;11.94;100.00;100378.84;5063824;28;19920;-79
2023/03/30 04:49:10;;;;;;;;;;;;;;;11.79;100.00;100382.91;5067389;28;19920;-77
2023/03/30 04:51:36;;;;;;;;;;;;;;;11.79;100.00;100386.47;5058196;28;20207;-79
2023/03/30 04:54:01;;;;;;;;;;;;;;;11.75;100.00;100393.09;5060689;28;19926;-78
2023/03/30 04:56:26;;;;;;;;;;;;;;;11.81;100.00;100392.56;5037868;28;19920;-78
2023/03/30 04:58:52;;;;;;;;;;;;;;;11.78;100.00;100392.00;5044581;28;19947;-78
2023/03/30 05:01:17;;;;;;;;;;;;;;;11.76;100.00;100394.81;5054081;28;19921;-80
2023/03/30 05:03:42;;;;;;;;;;;;;;;11.80;100.00;100396.22;5042838;28;19927;-80
2023/03/30 05:06:07;;;;;;;;;;;;;;;11.87;100.00;100388.44;5044521;28;19935;-79
2023/03/30 05:08:33;;;;;;;;;;;;;;;11.84;100.00;100392.28;5041483;28;19923;-79
2023/03/30 05:11:01;;;;;;;;;;;;;;;11.92;100.00;100406.88;5057265;28;19924;-78
2023/03/30 05:13:26;;;;;;;;;;;;;;;11.96;100.00;100405.59;5062152;28;20450;-78
2023/03/30 05:15:52;;;;;;;;;;;;;;;11.87;100.00;100411.81;5045075;28;19967;-78
2023/03/30 05:18:17;;;;;;;;;;;;;;;11.89;100.00;100420.59;5053578;28;20007;-80
2023/03/30 05:20:42;;;;;;;;;;;;;;;11.71;100.00;100407.81;5036772;28;19947;-79
2023/03/30 05:23:07;;;;;;;;;;;;;;;11.69;100.00;100445.59;5054932;28;19928;-78
2023/03/30 05:25:32;;;;;;;;;;;;;;;11.58;100.00;100440.31;5073106;28;19927;-79
2023/03/30 05:27:58;;;;;;;;;;;;;;;11.42;100.00;100439.97;5051054;28;19963;-80
2023/03/30 05:30:23;;;;;;;;;;;;;;;11.20;100.00;100441.88;5054264;28;20055;-79
2023/03/30 05:32:48;;;;;;;;;;;;;;;11.18;100.00;100449.22;5042733;28;19924;-80
2023/03/30 05:35:13;;;;;;;;;;;;;;;11.18;100.00;100441.16;5059147;28;19965;-78
2023/03/30 05:37:39;;;;;;;;;;;;;;;11.12;100.00;100439.84;5065129;28;19942;-79
2023/03/30 05:40:08;;;;;;;;;;;;;;;11.13;100.00;100438.00;5040075;28;20189;-78
2023/03/30 05:42:33;;;;;;;;;;;;;;;11.12;100.00;100430.91;5058061;28;20430;-79
2023/03/30 05:44:59;;;;;;;;;;;;;;;11.08;100.00;100441.09;5039956;28;19916;-80
2023/03/30 05:47:24;;;;;;;;;;;;;;;11.11;100.00;100443.53;5053222;28;20042;-78
2023/03/30 05:49:49;;;;;;;;;;;;;;;11.24;100.00;100441.47;5038862;28;19920;-80
2023/03/30 05:52:15;;;;;;;;;;;;;;;11.22;100.00;100451.47;5042535;28;19920;-79
2023/03/30 05:54:40;;;;;;;;;;;;;;;11.09;100.00;100438.25;5058966;28;19916;-78
2023/03/30 05:57:06;;;;;;;;;;;;;;;10.97;100.00;100442.03;5060109;28;19920;-78
2023/03/30 05:59:31;;;;;;;;;;;;;;;10.94;100.00;100443.13;5058170;28;19927;-79
2023/03/30 06:01:57;;;;;;;;;;;;;;;10.95;100.00;100439.44;5073477;28;19928;-80
2023/03/30 06:04:22;;;;;;;;;;;;;;;10.99;100.00;100447.25;5055817;28;19916;-78
2023/03/30 06:06:47;;;;;;;;;;;;;;;10.99;100.00;100445.41;5042522;28;19921;-80
2023/03/30 06:09:13;;;;;;;;;;;;;;;10.98;100.00;100442.84;5073577;28;20316;-78
2023/03/30 06:11:38;;;;;;;;;;;;;;;11.01;100.00;100443.44;5059192;28;20370;-79
2023/03/30 06:14:03;;;;;;;;;;;;;;;11.05;100.00;100447.56;5059613;28;19920;-79
2023/03/30 06:16:30;;;;;;;;;;;;;;;11.08;100.00;100455.38;5056474;28;19969;-79
2023/03/30 06:18:55;;;;;;;;;;;;;;;11.14;100.00;100453.13;5057073;28;20355;-79
2023/03/30 06:21:21;;;;;;;;;;;;;;;11.11;100.00;100456.94;5039508;28;20696;-77
2023/03/30 06:23:46;;;;;;;;;;;;;;;11.16;100.00;100456.53;5050252;28;19930;-80
2023/03/30 06:26:11;;;;;;;;;;;;;;;11.14;100.00;100461.19;5055404;28;20128;-78
2023/03/30 06:28:37;;;;;;;;;;;;;;;11.19;100.00;100451.75;5056805;28;20027;-76
2023/03/30 06:31:06;;;;;;;;;;;;;;;11.24;100.00;100454.88;5040737;28;20524;-77
2023/03/30 06:33:31;;;;;;;;;;;;;;;11.17;100.00;100460.94;5053807;28;19952;-78
2023/03/30 06:35:56;;;;;;;;;;;;;;;11.19;100.00;100467.03;5039726;28;20023;-77
2023/03/30 06:38:22;;;;;;;;;;;;;;;11.21;100.00;100478.50;5054900;28;19926;-77
2023/03/30 06:40:47;;;;;;;;;;;;;;;11.28;100.00;100473.44;5040232;28;19927;-78
2023/03/30 06:43:16;;;;;;;;;;;;;;;11.20;100.00;100485.69;5050528;28;20390;-79
2023/03/30 06:45:42;;;;;;;;;;;;;;;11.36;100.00;100489.75;5056908;28;19916;-77
2023/03/30 06:48:07;;;;;;;;;;;;;;;11.34;100.00;100486.34;5052020;28;19930;-79
2023/03/30 06:50:33;;;;;;;;;;;;;;;11.40;100.00;100481.28;5042089;28;20018;-78
2023/03/30 06:52:58;;;;;;;;;;;;;;;11.46;100.00;100481.75;5050561;28;19924;-79
2023/03/30 06:55:23;;;;;;;;;;;;;;;11.40;100.00;100475.91;5053530;28;19922;-78
2023/03/30 06:57:49;;;;;;;;;;;;;;;11.40;100.00;100478.59;5074248;28;20322;-76
2023/03/30 07:00:15;;;;;;;;;;;;;;;11.40;100.00;100489.34;5058298;28;19981;-76
2023/03/30 07:02:40;;;;;;;;;;;;;;;11.43;100.00;100487.38;5054128;28;19924;-78
2023/03/30 07:05:06;;;;;;;;;;;;;;;11.50;100.00;100483.19;5069108;28;19928;-78
2023/03/30 07:07:32;;;;;;;;;;;;;;;11.47;100.00;100476.22;5061067;28;19920;-78
2023/03/30 07:09:57;;;;;;;;;;;;;;;11.61;100.00;100488.44;5056449;28;20297;-79
2023/03/30 07:12:23;;;;;;;;;;;;;;;11.51;100.00;100493.78;5040492;28;20029;-78
2023/03/30 07:14:48;;;;;;;;;;;;;;;11.31;100.00;100490.13;5057576;28;19977;-78
2023/03/30 07:17:13;;;;;;;;;;;;;;;11.30;100.00;100484.91;5062202;28;19920;-77
2023/03/30 07:19:38;;;;;;;;;;;;;;;11.36;100.00;100493.28;5077205;28;20201;-76
2023/03/30 07:22:04;;;;;;;;;;;;;;;11.63;100.00;100497.25;5059287;28;19963;-75
2023/03/30 07:24:30;;;;;;;;;;;;;;;11.79;100.00;100498.56;5074649;28;19984;-77
2023/03/30 07:26:56;;;;;;;;;;;;;;;12.16;100.00;100492.63;5040369;28;20633;-78
2023/03/30 07:29:21;;;;;;;;;;;;;;;12.16;100.00;100487.25;5075500;28;19931;-76
2023/03/30 07:31:46;;;;;;;;;;;;;;;12.29;100.00;100497.75;5059278;28;19962;-78
2023/03/30 07:34:11;;;;;;;;;;;;;;;12.37;100.00;100495.22;5058705;28;19924;-79
2023/03/30 07:36:37;;;;;;;;;;;;;;;12.57;100.00;100506.88;5071456;28;19931;-79
2023/03/30 07:39:03;;;;;;;;;;;;;;;12.52;100.00;100514.50;5041107;28;19920;-77
2023/03/30 07:41:28;;;;;;;;;;;;;;;12.63;100.00;100504.56;5056979;28;19942;-77
2023/03/30 07:43:53;;;;;;;;;;;;;;;12.78;100.00;100502.31;5058648;28;20132;-79
2023/03/30 07:46:19;;;;;;;;;;;;;;;12.82;100.00;100506.44;5058272;28;19924;-79
2023/03/30 07:48:45;;;;;;;;;;;;;;;12.92;100.00;100506.41;5042483;28;20425;-79
2023/03/30 07:51:11;;;;;;;;;;;;;;;13.02;100.00;100501.88;5044363;28;19916;-78
2023/03/30 07:53:36;;;;;;;;;;;;;;;13.32;100.00;100499.97;5044325;28;20561;-77
2023/03/30 07:56:02;;;;;;;;;;;;;;;13.20;100.00;100499.31;5065907;28;19930;-78
2023/03/30 07:58:27;;;;;;;;;;;;;;;13.00;100.00;100512.78;5058584;28;20022;-78
2023/03/30 08:00:53;;;;;;;;;;;;;;;13.16;100.00;100514.06;5057302;28;19920;-77
2023/03/30 08:03:18;;;;;;;;;;;;;;;13.05;100.00;100512.38;5053497;28;19960;-79
2023/03/30 08:05:50;;;;;;;;;;;;;;;13.23;100.00;100517.88;5076193;28;20042;-77
2023/03/30 08:08:15;;;;;;;;;;;;;;;12.63;100.00;100481.19;5059341;28;19924;-78
2023/03/30 08:10:41;;;;;;;;;;;;;;;12.86;100.00;100521.31;5074263;28;20312;-80
2023/03/30 08:13:06;;;;;;;;;;;;;;;12.73;100.00;100525.13;5077255;28;20379;-77
2023/03/30 08:15:31;;;;;;;;;;;;;;;12.69;100.00;100525.56;5076081;28;20285;-78
2023/03/30 08:17:57;;;;;;;;;;;;;;;12.69;100.00;100534.50;5056560;28;19984;-78
2023/03/30 08:20:22;;;;;;;;;;;;;;;12.72;100.00;100544.13;5043419;28;20399;-78
2023/03/30 08:22:48;;;;;;;;;;;;;;;12.78;100.00;100548.09;5042103;28;19920;-77
2023/03/30 08:28:16;;;;;;;;;;;;;;;12.82;100.00;100542.31;5074034;28;19939;-77
2023/03/30 08:30:41;;;;;;;;;;;;;;;12.87;100.00;100548.09;5056449;28;19920;-77
2023/03/30 08:33:07;;;;;;;;;;;;;;;13.06;100.00;100532.94;5053300;28;19924;-78
2023/03/30 08:35:33;;;;;;;;;;;;;;;13.11;100.00;100552.19;5046652;28;19927;-77
2023/03/30 08:37:58;;;;;;;;;;;;;;;13.03;100.00;100550.22;5077639;28;20015;-79
2023/03/30 08:40:23;;;;;;;;;;;;;;;13.09;100.00;100529.09;5072670;28;20350;-79
2023/03/30 08:42:54;;;;;;;;;;;;;;;12.86;100.00;100559.03;5055790;28;19998;-78
2023/03/30 08:45:20;;;;;;;;;;;;;;;12.93;100.00;100554.78;5056287;28;19927;-77
2023/03/30 08:47:47;;;;;;;;;;;;;;;13.07;100.00;100552.66;5057353;28;19920;-77
2023/03/30 08:50:18;;;;;;;;;;;;;;;13.06;100.00;100551.81;5068293;28;19920;-77
2023/03/30 08:52:43;;;;;;;;;;;;;;;12.97;100.00;100545.44;5074550;28;20542;-78
2023/03/30 08:55:27;;;;;;;;;;;;;;;12.97;100.00;100558.03;5038666;28;20027;-78
2023/03/30 08:58:02;;;;;;;;;;;;;;;12.94;100.00;100558.31;5067348;28;20289;-77
2023/03/30 09:00:33;;;;;;;;;;;;;;;12.92;100.00;100547.69;5070944;28;20319;-78
2023/03/30 09:03:18;;;;;;;;;;;;;;;12.96;100.00;100551.81;5061073;28;19920;-77
2023/03/30 09:05:45;;;;;;;;;;;;;;;13.31;100.00;100550.34;5070241;28;20459;-76
2023/03/30 09:08:21;;;;;;;;;;;;;;;13.91;100.00;100559.13;5056501;28;19966;-78
2023/03/30 09:11:17;;;;;;;;;;;;;;;13.78;100.00;100560.34;5070082;28;19920;-77
2023/03/30 09:13:44;;;;;;;;;;;;;;;14.14;100.00;100556.09;5059673;28;19924;-76
2023/03/30 09:16:18;;;;;;;;;;;;;;;14.31;100.00;100549.88;5054335;28;19931;-77
2023/03/30 09:18:44;;;;;;;;;;;;;;;13.97;100.00;100558.56;5057853;28;19924;-77
2023/03/30 09:21:09;;;;;;;;;;;;;;;13.82;100.00;100563.59;5067095;28;19954;-77
2023/03/30 09:27:04;;;;;;;;;;;;;;;13.95;100.00;100577.59;5065990;28;20348;-77
2023/03/30 09:29:49;;;;;;;;;;;;;;;13.91;100.00;100575.34;5071327;28;19951;-75
2023/03/30 09:32:17;;;;;;;;;;;;;;;13.51;100.00;100577.28;5052611;28;19947;-77
2023/03/30 09:34:46;;;;;;;;;;;;;;;13.64;100.00;100583.25;5077539;28;19916;-76
2023/03/30 09:37:12;;;;;;;;;;;;;;;13.80;100.00;100585.34;5058154;28;19920;-76
2023/03/30 09:39:38;;;;;;;;;;;;;;;13.72;100.00;100578.97;5033526;28;20436;-77
2023/03/30 09:42:16;;;;;;;;;;;;;;;14.20;100.00;100593.25;5076338;28;19975;-75
2023/03/30 09:44:44;;;;;;;;;;;;;;;14.16;100.00;100600.81;5069962;28;19920;-76
2023/03/30 09:47:37;;;;;;;;;;;;;;;14.33;100.00;100601.88;5075852;28;19931;-75
2023/03/30 09:50:05;;;;;;;;;;;;;;;15.25;98.72;100592.88;5068187;28;19952;-76
2023/03/30 09:52:33;;;;;;;;;;;;;;;14.96;93.94;100599.38;5070061;28;19999;-76
2023/03/30 09:55:01;;;;;;;;;;;;;;;14.87;92.67;100597.59;5055704;28;19951;-75
2023/03/30 09:57:30;;;;;;;;;;;;;;;14.81;93.07;100597.22;5073011;28;20011;-77
2023/03/30 09:59:56;;;;;;;;;;;;;;;14.33;94.57;100622.63;5054742;28;20392;-76
2023/03/30 10:02:22;;;;;;;;;;;;;;;14.18;96.16;100604.22;5069706;28;20027;-76
2023/03/30 10:04:55;;;;;;;;;;;;;;;14.09;97.23;100608.66;5049025;28;20309;-75
2023/03/30 10:07:27;;;;;;;;;;;;;;;14.06;96.42;100608.09;5074497;28;19963;-76
2023/03/30 10:09:53;;;;;;;;;;;;;;;14.11;93.82;100600.41;5050958;28;19927;-74
2023/03/30 10:12:18;;;;;;;;;;;;;;;14.43;93.60;100615.31;5073209;28;20325;-74
2023/03/30 10:14:43;;;;;;;;;;;;;;;14.82;92.39;100619.69;5074714;28;19927;-76
2023/03/30 10:17:17;;;;;;;;;;;;;;;15.06;85.63;100627.19;5069000;28;19924;-78
2023/03/30 10:19:42;;;;;;;;;;;;;;;14.74;84.22;100635.78;5053638;28;19920;-76
2023/03/30 10:22:16;;;;;;;;;;;;;;;14.93;84.85;100630.28;5058302;28;19920;-77
2023/03/30 10:24:47;;;;;;;;;;;;;;;14.76;82.47;100621.16;5072929;28;19919;-76
2023/03/30 10:27:12;;;;;;;;;;;;;;;15.41;79.67;100624.63;5055373;28;20024;-76
2023/03/30 10:29:37;;;;;;;;;;;;;;;15.63;78.44;100625.13;5010642;28;1778532;-76
2023/03/30 10:32:18;;;;;;;;;;;;;;;15.29;77.58;100611.31;5066312;28;20496;-76
2023/03/30 10:34:44;;;;;;;;;;;;;;;15.07;79.99;100617.22;5073456;28;20030;-76
2023/03/30 10:37:14;;;;;;;;;;;;;;;15.10;81.48;100608.78;5059768;28;19967;-76
2023/03/30 10:39:40;;;;;;;;;;;;;;;15.05;83.53;100611.97;5055885;28;19993;-75
2023/03/30 10:42:06;;;;;;;;;;;;;;;14.96;84.26;100626.41;5072078;28;20014;-76
2023/03/30 10:44:35;;;;;;;;;;;;;;;14.77;85.09;100622.84;5058992;28;19920;-76
2023/03/30 10:47:06;;;;;;;;;;;;;;;14.96;85.09;100613.72;5060435;28;19924;-76
2023/03/30 10:49:37;;;;;;;;;;;;;;;15.11;83.24;100622.16;5058107;28;20271;-78
2023/03/30 10:52:07;;;;;;;;;;;;;;;14.31;82.30;100614.69;5056247;28;19919;-76
2023/03/30 10:54:34;;;;;;;;;;;;;;;14.46;87.10;100612.31;5058306;28;19920;-75
2023/03/30 10:57:08;;;;;;;;;;;;;;;14.40;87.96;100624.59;5074847;28;19924;-76
2023/03/30 10:59:39;;;;;;;;;;;;;;;14.54;88.23;100612.44;5067933;28;20026;-77
2023/03/30 11:02:27;;;;;;;;;;;;;;;14.88;84.67;100621.78;5073438;28;20361;-76
2023/03/30 11:04:53;;;;;;;;;;;;;;;14.78;83.44;100618.28;5066422;28;20031;-75
2023/03/30 11:07:37;;;;;;;;;;;;;;;14.87;82.01;100627.31;5073566;28;19920;-77
2023/03/30 11:10:30;;;;;;;;;;;;;;;14.62;84.30;100622.47;5062371;28;19916;-75
2023/03/30 11:13:03;;;;;;;;;;;;;;;14.84;83.49;100623.91;5057950;28;19973;-77
2023/03/30 11:15:31;;;;;;;;;;;;;;;14.95;80.59;100628.28;5079159;28;19927;-75
2023/03/30 11:17:59;;;;;;;;;;;;;;;14.97;81.81;100620.00;5062718;28;19954;-78
2023/03/30 11:20:28;;;;;;;;;;;;;;;14.93;81.19;100641.09;5063778;28;19916;-77
2023/03/30 11:22:54;;;;;;;;;;;;;;;14.45;82.10;100634.06;5055387;28;20497;-77
2023/03/30 11:25:21;;;;;;;;;;;;;;;14.34;87.04;100638.69;5061236;28;19924;-76
2023/03/30 11:27:53;;;;;;;;;;;;;;;14.82;85.30;100638.59;5061655;28;22116;-77
2023/03/30 11:30:26;;;;;;;;;;;;;;;14.22;86.19;100638.03;5043311;28;19920;-79
2023/03/30 11:33:06;;;;;;;;;;;;;;;14.74;86.15;100624.97;5040034;28;20425;-79
2023/03/30 11:35:39;;;;;;;;;;;;;;;15.15;86.43;100625.41;5076303;28;19974;-76
2023/03/30 11:38:07;;;;;;;;;;;;;;;14.59;84.16;100622.78;5059025;28;19924;-76
2023/03/30 11:40:43;;;;;;;;;;;;;;;14.42;84.17;100623.59;5061958;28;19924;-78
2023/03/30 11:43:15;;;;;;;;;;;;;;;14.58;84.57;100622.91;5076356;28;19924;-76
2023/03/30 11:45:47;;;;;;;;;;;;;;;15.11;83.96;100624.84;5059498;28;19935;-76
2023/03/30 11:48:15;;;;;;;;;;;;;;;15.27;83.78;100613.34;5066084;28;19928;-76
2023/03/30 11:50:55;;;;;;;;;;;;;;;15.06;81.28;100621.78;5068666;28;20289;-76
2023/03/30 11:53:33;;;;;;;;;;;;;;;16.01;75.31;100604.91;5081329;28;20323;-76
2023/03/30 11:56:00;;;;;;;;;;;;;;;16.68;74.44;100624.16;5061428;28;19920;-76
2023/03/30 11:58:29;;;;;;;;;;;;;;;17.22;72.03;100613.75;5059183;28;19920;-76
2023/03/30 12:00:54;;;;;;;;;;;;;;;17.41;72.72;100622.59;5058678;28;20019;-77
2023/03/30 12:03:22;;;;;;;;;;;;;;;16.07;68.72;100602.59;5061538;28;19920;-75
2023/03/30 12:05:52;;;;;;;;;;;;;;;15.40;73.01;100618.34;5078832;28;20378;-76
2023/03/30 12:08:23;;;;;;;;;;;;;;;15.34;72.87;100637.94;5053921;28;20155;-77
2023/03/30 12:10:59;;;;;;;;;;;;;;;15.73;75.79;100626.72;5060954;28;20034;-76
2023/03/30 12:13:26;;;;;;;;;;;;;;;16.18;75.55;100610.41;5071732;28;19924;-77
2023/03/30 12:15:54;;;;;;;;;;;;;;;15.74;72.97;100598.63;5074442;28;19935;-77
2023/03/30 12:18:35;;;;;;;;;;;;;;;15.93;73.35;100644.66;5059718;28;19920;-75
2023/03/30 12:21:00;;;;;;;;;;;;;;;15.57;79.17;100630.16;5053051;28;20280;-77
2023/03/30 12:23:44;;;;;;;;;;;;;;;14.83;86.67;100657.34;5073844;28;19993;-77
2023/03/30 12:26:16;;;;;;;;;;;;;;;14.57;89.09;100646.38;5081632;28;20392;-76
2023/03/30 12:28:43;;;;;;;;;;;;;;;14.55;88.77;100649.25;5057523;28;19994;-76
2023/03/30 12:31:08;;;;;;;;;;;;;;;14.47;90.30;100645.56;5057395;28;19984;-76
2023/03/30 12:33:50;;;;;;;;;;;;;;;14.38;92.21;100645.50;5074498;28;20710;-76
2023/03/30 12:36:34;;;;;;;;;;;;;;;14.78;92.44;100643.47;5043060;28;19920;-77
2023/03/30 12:39:04;;;;;;;;;;;;;;;15.60;82.72;100651.47;5060632;28;20186;-76
2023/03/30 12:41:38;;;;;;;;;;;;;;;15.81;81.48;100625.91;5043918;28;20350;-78